sensor_id;sensor_type;location;lat;lon;timestamp;temperature;humidity
18934;DHT22;9599;53.706;10.384;2023-07-29T00:01:24;18.80;99.90
18934;DHT22;9599;53.706;10.384;2023-07-29T00:03:52;18.80;99.90
18934;DHT22;9599;53.706;10.384;2023-07-29T00:06:20;18.80;99.90
18934;DHT22;9599;53.706;10.384;2023-07-29T00:08:48;18.80;99.90
18934;DHT22;9599;53.706;10.384;2023-07-29T00:11:17;18.80;99.90
18934;DHT22;9599;53.706;10.384;2023-07-29T00:13:45;18.80;99.90
18934;DHT22;9599;53.706;10.384;2023-07-29T00:16:15;18.80;99.90
18934;DHT22;9599;53.706;10.384;2023-07-29T00:18:44;18.70;99.90
18934;DHT22;9599;53.706;10.384;2023-07-29T00:21:12;18.70;99.90
18934;DHT22;9599;53.706;10.384;2023-07-29T00:23:40;18.70;99.90
18934;DHT22;9599;53.706;10.384;2023-07-29T00:26:08;18.70;99.90
18934;DHT22;9599;53.706;10.384;2023-07-29T00:28:36;18.70;99.90
18934;DHT22;9599;53.706;10.384;2023-07-29T00:31:04;18.60;99.90
18934;DHT22;9599;53.706;10.384;2023-07-29T00:33:35;18.60;99.90
18934;DHT22;9599;53.706;10.384;2023-07-29T00:36:03;18.60;99.90
18934;DHT22;9599;53.706;10.384;2023-07-29T00:38:31;18.50;99.90
18934;DHT22;9599;53.706;10.384;2023-07-29T00:41:00;18.50;99.90
18934;DHT22;9599;53.706;10.384;2023-07-29T00:43:29;18.50;99.90
18934;DHT22;9599;53.706;10.384;2023-07-29T00:45:57;18.40;99.90
18934;DHT22;9599;53.706;10.384;2023-07-29T00:48:28;18.30;99.90
18934;DHT22;9599;53.706;10.384;2023-07-29T00:50:58;18.30;99.90
18934;DHT22;9599;53.706;10.384;2023-07-29T00:53:27;18.20;99.90
18934;DHT22;9599;53.706;10.384;2023-07-29T00:55:55;18.10;99.90
18934;DHT22;9599;53.706;10.384;2023-07-29T00:58:23;18.10;99.90
18934;DHT22;9599;53.706;10.384;2023-07-29T01:00:51;18.10;99.90
18934;DHT22;9599;53.706;10.384;2023-07-29T01:03:21;18.00;99.90
18934;DHT22;9599;53.706;10.384;2023-07-29T01:05:58;18.00;99.90
18934;DHT22;9599;53.706;10.384;2023-07-29T01:08:31;17.90;99.90
18934;DHT22;9599;53.706;10.384;2023-07-29T01:11:08;17.90;99.90
18934;DHT22;9599;53.706;10.384;2023-07-29T01:13:48;17.90;99.90
18934;DHT22;9599;53.706;10.384;2023-07-29T01:16:22;17.80;99.90
18934;DHT22;9599;53.706;10.384;2023-07-29T01:18:53;17.80;99.90
18934;DHT22;9599;53.706;10.384;2023-07-29T01:21:27;17.80;99.90
18934;DHT22;9599;53.706;10.384;2023-07-29T01:23:59;17.70;99.90
18934;DHT22;9599;53.706;10.384;2023-07-29T01:26:27;17.70;99.90
18934;DHT22;9599;53.706;10.384;2023-07-29T01:28:56;17.70;99.90
18934;DHT22;9599;53.706;10.384;2023-07-29T01:31:30;17.70;99.90
18934;DHT22;9599;53.706;10.384;2023-07-29T01:34:04;17.70;99.90
18934;DHT22;9599;53.706;10.384;2023-07-29T01:36:35;17.80;99.90
18934;DHT22;9599;53.706;10.384;2023-07-29T01:39:08;17.80;99.90
18934;DHT22;9599;53.706;10.384;2023-07-29T01:41:39;17.80;99.90
18934;DHT22;9599;53.706;10.384;2023-07-29T01:44:09;17.80;99.90
18934;DHT22;9599;53.706;10.384;2023-07-29T01:46:38;17.80;99.90
18934;DHT22;9599;53.706;10.384;2023-07-29T01:49:06;17.80;99.90
18934;DHT22;9599;53.706;10.384;2023-07-29T01:51:34;17.70;99.90
18934;DHT22;9599;53.706;10.384;2023-07-29T01:54:02;17.70;99.90
18934;DHT22;9599;53.706;10.384;2023-07-29T01:56:32;17.80;99.90
18934;DHT22;9599;53.706;10.384;2023-07-29T01:59:01;17.90;99.90
18934;DHT22;9599;53.706;10.384;2023-07-29T02:01:29;17.90;99.90
18934;DHT22;9599;53.706;10.384;2023-07-29T02:03:58;18.00;99.90
18934;DHT22;9599;53.706;10.384;2023-07-29T02:06:26;18.00;99.90
18934;DHT22;9599;53.706;10.384;2023-07-29T02:08:55;17.90;99.90
18934;DHT22;9599;53.706;10.384;2023-07-29T02:11:23;17.90;99.90
18934;DHT22;9599;53.706;10.384;2023-07-29T02:13:56;18.00;99.90
18934;DHT22;9599;53.706;10.384;2023-07-29T02:16:24;18.00;99.90
18934;DHT22;9599;53.706;10.384;2023-07-29T02:18:52;18.10;99.90
18934;DHT22;9599;53.706;10.384;2023-07-29T02:21:22;18.10;99.90
18934;DHT22;9599;53.706;10.384;2023-07-29T02:23:50;18.20;99.90
18934;DHT22;9599;53.706;10.384;2023-07-29T02:26:19;18.20;99.90
18934;DHT22;9599;53.706;10.384;2023-07-29T02:28:46;18.20;99.90
18934;DHT22;9599;53.706;10.384;2023-07-29T02:31:21;18.30;99.90
18934;DHT22;9599;53.706;10.384;2023-07-29T02:33:49;18.30;99.90
18934;DHT22;9599;53.706;10.384;2023-07-29T02:36:18;18.40;99.90
18934;DHT22;9599;53.706;10.384;2023-07-29T02:38:46;18.50;99.90
18934;DHT22;9599;53.706;10.384;2023-07-29T02:41:14;18.50;99.90
18934;DHT22;9599;53.706;10.384;2023-07-29T02:43:42;18.50;99.90
18934;DHT22;9599;53.706;10.384;2023-07-29T02:46:10;18.50;99.90
18934;DHT22;9599;53.706;10.384;2023-07-29T02:48:41;18.50;99.90
18934;DHT22;9599;53.706;10.384;2023-07-29T02:51:10;18.60;99.90
18934;DHT22;9599;53.706;10.384;2023-07-29T02:53:38;18.60;99.90
18934;DHT22;9599;53.706;10.384;2023-07-29T02:56:06;18.60;99.90
18934;DHT22;9599;53.706;10.384;2023-07-29T02:58:36;18.60;99.90
18934;DHT22;9599;53.706;10.384;2023-07-29T03:01:05;18.60;99.90
18934;DHT22;9599;53.706;10.384;2023-07-29T03:03:34;18.70;99.90
18934;DHT22;9599;53.706;10.384;2023-07-29T03:06:05;18.70;99.90
18934;DHT22;9599;53.706;10.384;2023-07-29T03:08:34;18.70;99.90
18934;DHT22;9599;53.706;10.384;2023-07-29T03:11:05;18.80;99.90
18934;DHT22;9599;53.706;10.384;2023-07-29T03:13:33;18.80;99.90
18934;DHT22;9599;53.706;10.384;2023-07-29T03:16:05;18.80;99.90
18934;DHT22;9599;53.706;10.384;2023-07-29T03:18:33;18.80;99.90
18934;DHT22;9599;53.706;10.384;2023-07-29T03:21:02;18.90;99.90
18934;DHT22;9599;53.706;10.384;2023-07-29T03:23:32;18.80;99.90
18934;DHT22;9599;53.706;10.384;2023-07-29T03:26:01;18.80;99.90
18934;DHT22;9599;53.706;10.384;2023-07-29T03:28:38;18.80;99.90
18934;DHT22;9599;53.706;10.384;2023-07-29T03:31:06;18.80;99.90
18934;DHT22;9599;53.706;10.384;2023-07-29T03:33:35;18.80;99.90
18934;DHT22;9599;53.706;10.384;2023-07-29T03:36:03;18.80;99.90
18934;DHT22;9599;53.706;10.384;2023-07-29T03:38:32;18.80;99.90
18934;DHT22;9599;53.706;10.384;2023-07-29T03:41:02;18.90;99.90
18934;DHT22;9599;53.706;10.384;2023-07-29T03:43:30;18.90;99.90
18934;DHT22;9599;53.706;10.384;2023-07-29T03:46:00;18.90;99.90
18934;DHT22;9599;53.706;10.384;2023-07-29T03:48:29;18.90;99.90
18934;DHT22;9599;53.706;10.384;2023-07-29T03:50:58;18.90;99.90
18934;DHT22;9599;53.706;10.384;2023-07-29T03:53:26;18.90;99.90
18934;DHT22;9599;53.706;10.384;2023-07-29T03:55:55;18.90;99.90
18934;DHT22;9599;53.706;10.384;2023-07-29T03:58:23;18.90;99.90
18934;DHT22;9599;53.706;10.384;2023-07-29T04:00:51;18.80;99.90
18934;DHT22;9599;53.706;10.384;2023-07-29T04:03:19;18.90;99.90
18934;DHT22;9599;53.706;10.384;2023-07-29T04:05:50;18.90;99.90
18934;DHT22;9599;53.706;10.384;2023-07-29T04:08:19;18.90;99.90
18934;DHT22;9599;53.706;10.384;2023-07-29T04:10:48;18.90;99.90
18934;DHT22;9599;53.706;10.384;2023-07-29T04:13:17;18.90;99.90
18934;DHT22;9599;53.706;10.384;2023-07-29T04:15:45;18.90;99.90
18934;DHT22;9599;53.706;10.384;2023-07-29T04:18:13;19.00;99.90
18934;DHT22;9599;53.706;10.384;2023-07-29T04:21:01;19.00;99.90
18934;DHT22;9599;53.706;10.384;2023-07-29T04:23:29;19.00;99.90
18934;DHT22;9599;53.706;10.384;2023-07-29T04:25:57;19.00;99.90
18934;DHT22;9599;53.706;10.384;2023-07-29T04:28:26;19.00;99.90
18934;DHT22;9599;53.706;10.384;2023-07-29T04:30:54;19.00;99.90
18934;DHT22;9599;53.706;10.384;2023-07-29T04:33:22;19.00;99.90
18934;DHT22;9599;53.706;10.384;2023-07-29T04:35:50;19.10;99.90
18934;DHT22;9599;53.706;10.384;2023-07-29T04:38:19;19.10;99.90
18934;DHT22;9599;53.706;10.384;2023-07-29T04:40:48;19.20;99.90
18934;DHT22;9599;53.706;10.384;2023-07-29T04:43:16;19.20;99.90
18934;DHT22;9599;53.706;10.384;2023-07-29T04:45:45;19.30;99.90
18934;DHT22;9599;53.706;10.384;2023-07-29T04:48:13;19.20;99.90
18934;DHT22;9599;53.706;10.384;2023-07-29T04:50:41;19.30;99.90
18934;DHT22;9599;53.706;10.384;2023-07-29T04:53:09;19.30;99.90
18934;DHT22;9599;53.706;10.384;2023-07-29T04:55:37;19.30;99.90
18934;DHT22;9599;53.706;10.384;2023-07-29T04:58:05;19.30;99.90
18934;DHT22;9599;53.706;10.384;2023-07-29T05:00:33;19.30;99.90
18934;DHT22;9599;53.706;10.384;2023-07-29T05:03:04;19.30;99.90
18934;DHT22;9599;53.706;10.384;2023-07-29T05:05:32;19.40;99.90
18934;DHT22;9599;53.706;10.384;2023-07-29T05:08:00;19.40;99.90
18934;DHT22;9599;53.706;10.384;2023-07-29T05:10:29;19.40;99.90
18934;DHT22;9599;53.706;10.384;2023-07-29T05:12:57;19.40;99.90
18934;DHT22;9599;53.706;10.384;2023-07-29T05:15:25;19.40;99.90
18934;DHT22;9599;53.706;10.384;2023-07-29T05:17:53;19.40;99.90
18934;DHT22;9599;53.706;10.384;2023-07-29T05:20:23;19.50;99.90
18934;DHT22;9599;53.706;10.384;2023-07-29T05:22:51;19.50;99.90
18934;DHT22;9599;53.706;10.384;2023-07-29T05:25:19;19.60;99.90
18934;DHT22;9599;53.706;10.384;2023-07-29T05:27:47;19.60;99.90
18934;DHT22;9599;53.706;10.384;2023-07-29T05:30:15;19.70;99.90
18934;DHT22;9599;53.706;10.384;2023-07-29T05:32:43;19.70;99.90
18934;DHT22;9599;53.706;10.384;2023-07-29T05:35:11;19.80;99.90
18934;DHT22;9599;53.706;10.384;2023-07-29T05:37:41;19.80;99.90
18934;DHT22;9599;53.706;10.384;2023-07-29T05:40:09;19.80;99.90
18934;DHT22;9599;53.706;10.384;2023-07-29T05:42:38;19.90;99.90
18934;DHT22;9599;53.706;10.384;2023-07-29T05:45:08;19.90;99.90
18934;DHT22;9599;53.706;10.384;2023-07-29T05:47:37;20.00;99.90
18934;DHT22;9599;53.706;10.384;2023-07-29T05:50:06;20.00;99.90
18934;DHT22;9599;53.706;10.384;2023-07-29T05:52:34;20.10;99.90
18934;DHT22;9599;53.706;10.384;2023-07-29T05:55:05;20.10;99.90
18934;DHT22;9599;53.706;10.384;2023-07-29T05:57:33;20.20;99.90
18934;DHT22;9599;53.706;10.384;2023-07-29T06:00:01;20.30;99.90
18934;DHT22;9599;53.706;10.384;2023-07-29T06:02:38;20.30;99.90
18934;DHT22;9599;53.706;10.384;2023-07-29T06:05:10;20.40;99.90
18934;DHT22;9599;53.706;10.384;2023-07-29T06:07:38;20.50;99.90
18934;DHT22;9599;53.706;10.384;2023-07-29T06:10:13;20.50;99.90
18934;DHT22;9599;53.706;10.384;2023-07-29T06:12:42;20.50;99.90
18934;DHT22;9599;53.706;10.384;2023-07-29T06:15:10;20.60;99.90
18934;DHT22;9599;53.706;10.384;2023-07-29T06:17:38;20.70;99.90
18934;DHT22;9599;53.706;10.384;2023-07-29T06:20:08;20.80;99.90
18934;DHT22;9599;53.706;10.384;2023-07-29T06:22:36;20.90;99.90
18934;DHT22;9599;53.706;10.384;2023-07-29T06:25:04;20.90;99.90
18934;DHT22;9599;53.706;10.384;2023-07-29T06:27:34;20.90;99.90
18934;DHT22;9599;53.706;10.384;2023-07-29T06:30:02;20.90;99.90
18934;DHT22;9599;53.706;10.384;2023-07-29T06:32:31;20.80;99.90
18934;DHT22;9599;53.706;10.384;2023-07-29T06:34:59;20.80;99.90
18934;DHT22;9599;53.706;10.384;2023-07-29T06:37:27;21.00;99.90
18934;DHT22;9599;53.706;10.384;2023-07-29T06:39:55;21.00;99.90
18934;DHT22;9599;53.706;10.384;2023-07-29T06:42:23;21.10;99.90
18934;DHT22;9599;53.706;10.384;2023-07-29T06:44:52;21.30;99.90
18934;DHT22;9599;53.706;10.384;2023-07-29T06:47:20;21.40;99.90
18934;DHT22;9599;53.706;10.384;2023-07-29T06:49:48;21.40;99.90
18934;DHT22;9599;53.706;10.384;2023-07-29T06:52:16;21.30;99.90
18934;DHT22;9599;53.706;10.384;2023-07-29T06:54:44;21.30;99.90
18934;DHT22;9599;53.706;10.384;2023-07-29T06:57:13;21.30;99.90
18934;DHT22;9599;53.706;10.384;2023-07-29T06:59:41;21.30;99.90
18934;DHT22;9599;53.706;10.384;2023-07-29T07:02:10;21.30;99.90
18934;DHT22;9599;53.706;10.384;2023-07-29T07:04:38;21.40;99.90
18934;DHT22;9599;53.706;10.384;2023-07-29T07:07:06;21.50;99.90
18934;DHT22;9599;53.706;10.384;2023-07-29T07:09:34;21.60;99.90
18934;DHT22;9599;53.706;10.384;2023-07-29T07:12:03;21.80;99.90
18934;DHT22;9599;53.706;10.384;2023-07-29T07:14:31;21.90;99.90
18934;DHT22;9599;53.706;10.384;2023-07-29T07:16:58;22.10;99.90
18934;DHT22;9599;53.706;10.384;2023-07-29T07:19:28;22.40;99.90
18934;DHT22;9599;53.706;10.384;2023-07-29T07:21:56;22.60;99.90
18934;DHT22;9599;53.706;10.384;2023-07-29T07:24:23;22.60;99.90
18934;DHT22;9599;53.706;10.384;2023-07-29T07:26:51;22.90;99.90
18934;DHT22;9599;53.706;10.384;2023-07-29T07:29:19;23.00;99.90
18934;DHT22;9599;53.706;10.384;2023-07-29T07:31:50;22.90;99.90
18934;DHT22;9599;53.706;10.384;2023-07-29T07:34:19;22.70;99.90
18934;DHT22;9599;53.706;10.384;2023-07-29T07:36:48;22.40;99.90
18934;DHT22;9599;53.706;10.384;2023-07-29T07:39:16;22.20;99.90
18934;DHT22;9599;53.706;10.384;2023-07-29T07:41:44;22.00;99.90
18934;DHT22;9599;53.706;10.384;2023-07-29T07:44:12;21.80;99.90
18934;DHT22;9599;53.706;10.384;2023-07-29T07:46:42;21.70;99.90
18934;DHT22;9599;53.706;10.384;2023-07-29T07:49:10;21.70;99.90
18934;DHT22;9599;53.706;10.384;2023-07-29T07:51:38;21.70;99.90
18934;DHT22;9599;53.706;10.384;2023-07-29T07:54:07;21.60;99.90
18934;DHT22;9599;53.706;10.384;2023-07-29T07:56:35;21.60;99.90
18934;DHT22;9599;53.706;10.384;2023-07-29T07:59:03;21.70;99.90
18934;DHT22;9599;53.706;10.384;2023-07-29T08:01:34;21.60;99.90
18934;DHT22;9599;53.706;10.384;2023-07-29T08:04:03;21.70;99.90
18934;DHT22;9599;53.706;10.384;2023-07-29T08:06:32;21.80;99.90
18934;DHT22;9599;53.706;10.384;2023-07-29T08:09:01;21.80;99.90
18934;DHT22;9599;53.706;10.384;2023-07-29T08:11:30;21.70;99.90
18934;DHT22;9599;53.706;10.384;2023-07-29T08:13:58;21.80;99.90
18934;DHT22;9599;53.706;10.384;2023-07-29T08:16:26;21.80;99.90
18934;DHT22;9599;53.706;10.384;2023-07-29T08:18:54;21.70;99.90
18934;DHT22;9599;53.706;10.384;2023-07-29T08:21:22;21.70;99.90
18934;DHT22;9599;53.706;10.384;2023-07-29T08:23:50;21.60;99.90
18934;DHT22;9599;53.706;10.384;2023-07-29T08:26:18;21.60;99.90
18934;DHT22;9599;53.706;10.384;2023-07-29T08:28:48;21.60;99.90
18934;DHT22;9599;53.706;10.384;2023-07-29T08:31:19;21.50;99.90
18934;DHT22;9599;53.706;10.384;2023-07-29T08:33:47;21.50;99.90
18934;DHT22;9599;53.706;10.384;2023-07-29T08:36:15;21.40;99.90
18934;DHT22;9599;53.706;10.384;2023-07-29T08:38:43;21.50;99.90
18934;DHT22;9599;53.706;10.384;2023-07-29T08:41:14;21.50;99.90
18934;DHT22;9599;53.706;10.384;2023-07-29T08:43:47;21.60;99.90
18934;DHT22;9599;53.706;10.384;2023-07-29T08:46:20;21.70;99.90
18934;DHT22;9599;53.706;10.384;2023-07-29T08:48:48;21.80;99.90
18934;DHT22;9599;53.706;10.384;2023-07-29T08:51:17;21.90;99.90
18934;DHT22;9599;53.706;10.384;2023-07-29T08:53:46;21.90;99.90
18934;DHT22;9599;53.706;10.384;2023-07-29T08:56:15;22.00;99.90
18934;DHT22;9599;53.706;10.384;2023-07-29T08:58:43;22.00;99.90
18934;DHT22;9599;53.706;10.384;2023-07-29T09:01:12;22.10;99.90
18934;DHT22;9599;53.706;10.384;2023-07-29T09:03:41;22.10;99.90
18934;DHT22;9599;53.706;10.384;2023-07-29T09:06:09;22.10;99.90
18934;DHT22;9599;53.706;10.384;2023-07-29T09:08:37;22.00;99.90
18934;DHT22;9599;53.706;10.384;2023-07-29T09:11:06;21.90;99.90
18934;DHT22;9599;53.706;10.384;2023-07-29T09:13:35;21.80;99.90
18934;DHT22;9599;53.706;10.384;2023-07-29T09:16:04;21.80;99.90
18934;DHT22;9599;53.706;10.384;2023-07-29T09:18:32;21.90;99.90
18934;DHT22;9599;53.706;10.384;2023-07-29T09:21:02;22.00;99.90
18934;DHT22;9599;53.706;10.384;2023-07-29T09:23:38;22.30;99.90
18934;DHT22;9599;53.706;10.384;2023-07-29T09:26:08;22.40;99.90
18934;DHT22;9599;53.706;10.384;2023-07-29T09:28:37;22.60;99.90
18934;DHT22;9599;53.706;10.384;2023-07-29T09:31:06;22.90;99.90
18934;DHT22;9599;53.706;10.384;2023-07-29T09:33:35;23.00;99.90
18934;DHT22;9599;53.706;10.384;2023-07-29T09:36:08;22.90;99.90
18934;DHT22;9599;53.706;10.384;2023-07-29T09:38:37;23.00;99.90
18934;DHT22;9599;53.706;10.384;2023-07-29T09:41:05;23.10;99.90
18934;DHT22;9599;53.706;10.384;2023-07-29T09:43:34;23.20;99.90
18934;DHT22;9599;53.706;10.384;2023-07-29T09:46:03;23.30;99.90
18934;DHT22;9599;53.706;10.384;2023-07-29T09:48:32;23.40;99.90
18934;DHT22;9599;53.706;10.384;2023-07-29T09:51:09;23.50;99.90
18934;DHT22;9599;53.706;10.384;2023-07-29T09:53:40;23.50;99.90
18934;DHT22;9599;53.706;10.384;2023-07-29T09:56:12;23.30;99.90
18934;DHT22;9599;53.706;10.384;2023-07-29T09:58:43;23.30;99.90
18934;DHT22;9599;53.706;10.384;2023-07-29T10:01:12;23.40;99.90
18934;DHT22;9599;53.706;10.384;2023-07-29T10:03:40;23.70;99.90
18934;DHT22;9599;53.706;10.384;2023-07-29T10:06:10;24.00;99.90
18934;DHT22;9599;53.706;10.384;2023-07-29T10:08:39;24.20;99.90
18934;DHT22;9599;53.706;10.384;2023-07-29T10:11:08;24.20;99.90
18934;DHT22;9599;53.706;10.384;2023-07-29T10:13:36;24.00;99.90
18934;DHT22;9599;53.706;10.384;2023-07-29T10:16:05;23.80;99.90
18934;DHT22;9599;53.706;10.384;2023-07-29T10:18:34;23.70;99.90
18934;DHT22;9599;53.706;10.384;2023-07-29T10:21:02;23.90;99.90
18934;DHT22;9599;53.706;10.384;2023-07-29T10:23:37;23.90;99.90
18934;DHT22;9599;53.706;10.384;2023-07-29T10:26:10;24.00;99.90
18934;DHT22;9599;53.706;10.384;2023-07-29T10:28:40;24.10;99.90
18934;DHT22;9599;53.706;10.384;2023-07-29T10:31:09;24.20;99.90
18934;DHT22;9599;53.706;10.384;2023-07-29T10:33:38;24.20;99.90
18934;DHT22;9599;53.706;10.384;2023-07-29T10:36:06;24.30;99.90
18934;DHT22;9599;53.706;10.384;2023-07-29T10:38:37;24.20;99.90
18934;DHT22;9599;53.706;10.384;2023-07-29T10:41:05;24.30;99.90
18934;DHT22;9599;53.706;10.384;2023-07-29T10:43:34;24.30;99.90
18934;DHT22;9599;53.706;10.384;2023-07-29T10:46:15;24.60;99.90
18934;DHT22;9599;53.706;10.384;2023-07-29T10:48:51;24.80;99.90
18934;DHT22;9599;53.706;10.384;2023-07-29T10:51:27;24.80;99.90
18934;DHT22;9599;53.706;10.384;2023-07-29T10:53:59;24.60;99.90
18934;DHT22;9599;53.706;10.384;2023-07-29T10:56:30;24.60;99.90
18934;DHT22;9599;53.706;10.384;2023-07-29T10:59:02;24.70;99.90
18934;DHT22;9599;53.706;10.384;2023-07-29T11:01:51;24.80;99.90
18934;DHT22;9599;53.706;10.384;2023-07-29T11:04:23;24.60;99.90
18934;DHT22;9599;53.706;10.384;2023-07-29T11:07:20;24.60;99.90
18934;DHT22;9599;53.706;10.384;2023-07-29T11:10:00;24.60;99.90
18934;DHT22;9599;53.706;10.384;2023-07-29T11:12:39;24.50;99.90
18934;DHT22;9599;53.706;10.384;2023-07-29T11:15:13;24.60;99.90
18934;DHT22;9599;53.706;10.384;2023-07-29T11:17:43;24.90;99.90
18934;DHT22;9599;53.706;10.384;2023-07-29T11:20:12;25.00;99.90
18934;DHT22;9599;53.706;10.384;2023-07-29T11:22:41;24.80;99.90
18934;DHT22;9599;53.706;10.384;2023-07-29T11:25:11;24.70;99.90
18934;DHT22;9599;53.706;10.384;2023-07-29T11:27:40;24.80;99.90
18934;DHT22;9599;53.706;10.384;2023-07-29T11:30:10;24.80;99.90
18934;DHT22;9599;53.706;10.384;2023-07-29T11:32:39;24.80;99.90
18934;DHT22;9599;53.706;10.384;2023-07-29T11:35:09;24.40;99.90
18934;DHT22;9599;53.706;10.384;2023-07-29T11:37:39;24.50;99.90
18934;DHT22;9599;53.706;10.384;2023-07-29T11:40:08;24.50;99.90
18934;DHT22;9599;53.706;10.384;2023-07-29T11:42:38;24.60;99.90
18934;DHT22;9599;53.706;10.384;2023-07-29T11:45:07;24.60;99.90
18934;DHT22;9599;53.706;10.384;2023-07-29T11:47:36;24.70;99.90
18934;DHT22;9599;53.706;10.384;2023-07-29T11:50:06;24.70;99.90
18934;DHT22;9599;53.706;10.384;2023-07-29T11:52:36;24.80;99.90
18934;DHT22;9599;53.706;10.384;2023-07-29T11:55:05;24.90;99.90
18934;DHT22;9599;53.706;10.384;2023-07-29T11:57:35;24.80;99.90
18934;DHT22;9599;53.706;10.384;2023-07-29T12:00:06;25.00;99.90
18934;DHT22;9599;53.706;10.384;2023-07-29T12:02:38;25.20;99.90
18934;DHT22;9599;53.706;10.384;2023-07-29T12:05:07;25.20;99.90
18934;DHT22;9599;53.706;10.384;2023-07-29T12:07:38;25.20;99.90
18934;DHT22;9599;53.706;10.384;2023-07-29T12:10:07;25.00;99.90
18934;DHT22;9599;53.706;10.384;2023-07-29T12:12:38;25.20;99.90
18934;DHT22;9599;53.706;10.384;2023-07-29T12:15:10;25.50;99.90
18934;DHT22;9599;53.706;10.384;2023-07-29T12:17:39;25.60;99.90
18934;DHT22;9599;53.706;10.384;2023-07-29T12:20:09;25.50;99.90
18934;DHT22;9599;53.706;10.384;2023-07-29T12:22:38;25.10;99.90
18934;DHT22;9599;53.706;10.384;2023-07-29T12:25:07;25.00;99.90
18934;DHT22;9599;53.706;10.384;2023-07-29T12:27:35;24.90;99.90
18934;DHT22;9599;53.706;10.384;2023-07-29T12:30:04;25.00;99.90
18934;DHT22;9599;53.706;10.384;2023-07-29T12:32:43;25.20;99.90
18934;DHT22;9599;53.706;10.384;2023-07-29T12:35:11;25.50;99.90
18934;DHT22;9599;53.706;10.384;2023-07-29T12:37:39;25.60;99.90
18934;DHT22;9599;53.706;10.384;2023-07-29T12:40:21;25.60;99.90
18934;DHT22;9599;53.706;10.384;2023-07-29T12:42:50;25.60;99.90
18934;DHT22;9599;53.706;10.384;2023-07-29T12:45:18;25.60;99.90
18934;DHT22;9599;53.706;10.384;2023-07-29T12:47:49;25.30;99.90
18934;DHT22;9599;53.706;10.384;2023-07-29T12:50:17;25.40;99.90
18934;DHT22;9599;53.706;10.384;2023-07-29T12:52:45;25.70;99.90
18934;DHT22;9599;53.706;10.384;2023-07-29T12:55:13;25.90;99.90
18934;DHT22;9599;53.706;10.384;2023-07-29T12:57:41;26.10;99.90
18934;DHT22;9599;53.706;10.384;2023-07-29T13:00:11;26.00;99.90
18934;DHT22;9599;53.706;10.384;2023-07-29T13:02:39;25.90;99.90
18934;DHT22;9599;53.706;10.384;2023-07-29T13:05:10;25.80;99.90
18934;DHT22;9599;53.706;10.384;2023-07-29T13:07:39;25.60;99.90
18934;DHT22;9599;53.706;10.384;2023-07-29T13:10:08;25.10;99.90
18934;DHT22;9599;53.706;10.384;2023-07-29T13:12:36;25.00;99.90
18934;DHT22;9599;53.706;10.384;2023-07-29T13:15:05;25.00;99.90
18934;DHT22;9599;53.706;10.384;2023-07-29T13:17:34;25.20;99.90
18934;DHT22;9599;53.706;10.384;2023-07-29T13:20:02;25.20;99.90
18934;DHT22;9599;53.706;10.384;2023-07-29T13:22:31;25.20;99.90
18934;DHT22;9599;53.706;10.384;2023-07-29T13:24:59;25.20;99.90
18934;DHT22;9599;53.706;10.384;2023-07-29T13:27:27;25.00;99.90
18934;DHT22;9599;53.706;10.384;2023-07-29T13:29:55;25.10;99.90
18934;DHT22;9599;53.706;10.384;2023-07-29T13:32:23;25.20;99.90
18934;DHT22;9599;53.706;10.384;2023-07-29T13:34:52;25.30;99.90
18934;DHT22;9599;53.706;10.384;2023-07-29T13:37:20;25.40;99.90
18934;DHT22;9599;53.706;10.384;2023-07-29T13:39:49;25.30;99.90
18934;DHT22;9599;53.706;10.384;2023-07-29T13:42:17;25.40;99.90
18934;DHT22;9599;53.706;10.384;2023-07-29T13:44:45;25.70;99.90
18934;DHT22;9599;53.706;10.384;2023-07-29T13:47:13;25.70;99.90
18934;DHT22;9599;53.706;10.384;2023-07-29T13:49:41;25.70;99.90
18934;DHT22;9599;53.706;10.384;2023-07-29T13:52:09;25.70;99.90
18934;DHT22;9599;53.706;10.384;2023-07-29T13:54:37;25.40;99.90
18934;DHT22;9599;53.706;10.384;2023-07-29T13:57:07;25.40;99.90
18934;DHT22;9599;53.706;10.384;2023-07-29T13:59:37;25.20;99.90
18934;DHT22;9599;53.706;10.384;2023-07-29T14:02:05;25.20;99.90
18934;DHT22;9599;53.706;10.384;2023-07-29T14:04:34;25.10;99.90
18934;DHT22;9599;53.706;10.384;2023-07-29T14:07:02;25.00;99.90
18934;DHT22;9599;53.706;10.384;2023-07-29T14:09:30;24.90;99.90
18934;DHT22;9599;53.706;10.384;2023-07-29T14:11:59;25.00;99.90
18934;DHT22;9599;53.706;10.384;2023-07-29T14:14:28;25.00;99.90
18934;DHT22;9599;53.706;10.384;2023-07-29T14:16:56;25.20;99.90
18934;DHT22;9599;53.706;10.384;2023-07-29T14:19:24;25.30;99.90
18934;DHT22;9599;53.706;10.384;2023-07-29T14:21:52;25.50;99.90
18934;DHT22;9599;53.706;10.384;2023-07-29T14:24:20;25.50;99.90
18934;DHT22;9599;53.706;10.384;2023-07-29T14:26:49;25.40;99.90
18934;DHT22;9599;53.706;10.384;2023-07-29T14:29:17;25.10;99.90
18934;DHT22;9599;53.706;10.384;2023-07-29T14:31:46;24.80;99.90
18934;DHT22;9599;53.706;10.384;2023-07-29T14:34:14;24.70;99.90
18934;DHT22;9599;53.706;10.384;2023-07-29T14:36:42;24.90;99.90
18934;DHT22;9599;53.706;10.384;2023-07-29T14:39:10;25.00;99.90
18934;DHT22;9599;53.706;10.384;2023-07-29T14:41:38;25.20;99.90
18934;DHT22;9599;53.706;10.384;2023-07-29T14:44:06;25.20;99.90
18934;DHT22;9599;53.706;10.384;2023-07-29T14:46:34;25.00;99.90
18934;DHT22;9599;53.706;10.384;2023-07-29T14:49:04;24.90;99.90
18934;DHT22;9599;53.706;10.384;2023-07-29T14:51:32;24.90;99.90
18934;DHT22;9599;53.706;10.384;2023-07-29T14:54:00;25.00;99.90
18934;DHT22;9599;53.706;10.384;2023-07-29T14:56:28;24.80;99.90
18934;DHT22;9599;53.706;10.384;2023-07-29T14:58:56;24.80;99.90
18934;DHT22;9599;53.706;10.384;2023-07-29T15:01:24;24.90;99.90
18934;DHT22;9599;53.706;10.384;2023-07-29T15:03:52;24.80;99.90
18934;DHT22;9599;53.706;10.384;2023-07-29T15:06:22;24.80;99.90
18934;DHT22;9599;53.706;10.384;2023-07-29T15:08:50;24.80;99.90
18934;DHT22;9599;53.706;10.384;2023-07-29T15:11:18;24.70;99.90
18934;DHT22;9599;53.706;10.384;2023-07-29T15:13:46;24.80;99.90
18934;DHT22;9599;53.706;10.384;2023-07-29T15:16:14;24.80;99.90
18934;DHT22;9599;53.706;10.384;2023-07-29T15:18:42;24.60;99.90
18934;DHT22;9599;53.706;10.384;2023-07-29T15:21:10;24.60;99.90
18934;DHT22;9599;53.706;10.384;2023-07-29T15:23:41;24.50;99.90
18934;DHT22;9599;53.706;10.384;2023-07-29T15:26:09;24.60;99.90
18934;DHT22;9599;53.706;10.384;2023-07-29T15:28:37;24.80;99.90
18934;DHT22;9599;53.706;10.384;2023-07-29T15:31:05;24.90;99.90
18934;DHT22;9599;53.706;10.384;2023-07-29T15:33:33;24.90;99.90
18934;DHT22;9599;53.706;10.384;2023-07-29T15:36:02;25.00;99.90
18934;DHT22;9599;53.706;10.384;2023-07-29T15:38:30;25.00;99.90
18934;DHT22;9599;53.706;10.384;2023-07-29T15:40:59;25.20;99.90
18934;DHT22;9599;53.706;10.384;2023-07-29T15:43:29;25.30;99.90